Terminal Aerodrome Forecast
Issued by NWS

Home | Current Version | Previous Version | Graphics & Text | Print | Product List | Glossary On
Versions: 1 2 3 4 5 6 7 8 9 10 11 12 13 14 15 16 17 18 19
812
FTUS43 KMPX 051742
TAFRWF
TAF
KRWF 051742Z 0518/0618 15012G18KT P6SM OVC090
     FM060200 25016G25KT P6SM OVC030
     FM061400 26022G35KT P6SM VCSH OVC020 PROB30 0614/0618 3SM -SHSN
      OVC015=

USA.gov is the U.S. government's official web portal to all federal, state and local government web resources and services.